createdAt,value
2022-12-31T00:04:03.675Z,0.9331103678929766
2022-12-31T00:11:20.714Z,0.8060200668896321
2022-12-31T00:17:41.207Z,0.842809364548495
2022-12-31T00:24:02.234Z,0.9297658862876255
2022-12-31T00:30:21.556Z,0.5785953177257525
2022-12-31T00:37:33.828Z,0.7892976588628763
2022-12-31T00:43:53.842Z,0.7424749163879598
2022-12-31T01:01:01.179Z,0.3745819397993311
2022-12-31T01:12:58.557Z,0.903010033444816
2022-12-31T01:19:51.515Z,0.8896321070234113
2022-12-31T01:26:11.289Z,0.4214046822742475
2022-12-31T01:32:30.445Z,0.5351170568561873
2022-12-31T01:38:49.266Z,0.44816053511705684
2022-12-31T01:45:08.294Z,0.8695652173913043
2022-12-31T01:51:27.588Z,0.49498327759197325
2022-12-31T02:02:22.642Z,0.2140468227424749
2022-12-31T02:08:42.565Z,0.8361204013377926
2022-12-31T02:15:01.925Z,0.6555183946488294
2022-12-31T02:21:21.000Z,0.3612040133779264
2022-12-31T02:27:40.876Z,0.2608695652173913
2022-12-31T02:34:00.967Z,0.6755852842809364
2022-12-31T02:40:20.724Z,0.9331103678929766
2022-12-31T02:46:40.394Z,0.1806020066889632
2022-12-31T02:52:59.345Z,0.22073578595317725
2022-12-31T02:59:17.722Z,0.4882943143812709
2022-12-31T03:11:47.821Z,0.4414715719063545
2022-12-31T03:18:07.231Z,0.568561872909699
2022-12-31T03:24:27.053Z,0.4214046822742475
2022-12-31T03:30:46.011Z,0.5284280936454849
2022-12-31T03:37:04.746Z,0.5351170568561873
2022-12-31T03:47:53.275Z,0.49498327759197325
2022-12-31T03:54:13.600Z,0.35451505016722407
2022-12-31T04:00:32.766Z,0.0
2022-12-31T04:06:51.711Z,0.09364548494983277
2022-12-31T04:13:10.431Z,0.08695652173913043
2022-12-31T04:25:19.595Z,0.1806020066889632
2022-12-31T04:31:38.479Z,0.0
2022-12-31T04:47:57.625Z,0.0
2022-12-31T04:54:16.534Z,0.08695652173913043
2022-12-31T05:00:35.318Z,0.0
2022-12-31T05:13:07.713Z,0.08695652173913043
2022-12-31T05:19:27.550Z,0.09364548494983277
2022-12-31T05:31:21.845Z,0.0
2022-12-31T05:40:42.208Z,0.26755852842809363
2022-12-31T05:47:25.536Z,0.17391304347826086
2022-12-31T05:53:45.092Z,0.09364548494983277
2022-12-31T06:00:04.589Z,0.40468227424749165
2022-12-31T06:12:40.571Z,0.22073578595317725
2022-12-31T06:19:00.006Z,0.5351170568561873
2022-12-31T06:25:19.702Z,0.1806020066889632
2022-12-31T06:35:37.160Z,0.35451505016722407
2022-12-31T06:41:56.177Z,0.4013377926421405
2022-12-31T06:48:17.078Z,0.2140468227424749
2022-12-31T06:54:36.661Z,0.2608695652173913
2022-12-31T07:00:56.176Z,0.35451505016722407
2022-12-31T07:07:16.688Z,0.18729096989966554
2022-12-31T07:18:36.619Z,0.4916387959866221
2022-12-31T07:24:55.855Z,0.44816053511705684
2022-12-31T07:43:32.561Z,0.45484949832775917
2022-12-31T07:49:52.146Z,0.8963210702341137
2022-12-31T07:56:10.801Z,0.39464882943143814
2022-12-31T08:02:30.076Z,0.31438127090301005
2022-12-31T08:08:49.213Z,0.4280936454849498
2022-12-31T08:15:09.481Z,0.49498327759197325
2022-12-31T08:21:34.851Z,0.41471571906354515
2022-12-31T08:27:57.299Z,0.6220735785953178
2022-12-31T08:34:19.940Z,0.7023411371237458
2022-12-31T08:43:51.306Z,0.5284280936454849
2022-12-31T08:50:13.121Z,0.31438127090301005
2022-12-31T08:56:34.923Z,0.47491638795986624
2022-12-31T09:04:58.186Z,0.5351170568561873
2022-12-31T09:11:23.275Z,0.16722408026755853
2022-12-31T09:21:20.687Z,0.2608695652173913
2022-12-31T09:27:43.181Z,0.17391304347826086
2022-12-31T09:34:08.291Z,0.27424749163879597
2022-12-31T09:46:12.192Z,0.08695652173913043
2022-12-31T09:52:33.808Z,0.4414715719063545
2022-12-31T09:58:55.152Z,0.17391304347826086
2022-12-31T10:05:17.426Z,0.09364548494983277
2022-12-31T10:11:39.284Z,0.17391304347826086
2022-12-31T10:18:01.626Z,0.25418060200668896
2022-12-31T10:24:23.949Z,0.10702341137123746
2022-12-31T10:30:45.951Z,0.0
2022-12-31T10:37:08.599Z,0.17391304347826086
2022-12-31T10:43:31.674Z,0.08695652173913043
2022-12-31T10:49:53.403Z,0.09364548494983277
2022-12-31T10:56:19.444Z,0.1806020066889632
2022-12-31T11:02:43.906Z,0.0
2022-12-31T11:09:12.343Z,0.16722408026755853
2022-12-31T11:15:34.357Z,0.1806020066889632
2022-12-31T11:21:55.987Z,0.8060200668896321
2022-12-31T11:28:20.865Z,0.1806020066889632
2022-12-31T11:34:42.824Z,0.08695652173913043
2022-12-31T11:47:08.610Z,0.17391304347826086
2022-12-31T11:56:20.165Z,0.08695652173913043
2022-12-31T12:02:42.291Z,0.2608695652173913
2022-12-31T12:09:04.552Z,0.0
2022-12-31T12:15:27.083Z,0.17391304347826086
2022-12-31T12:21:49.539Z,0.26755852842809363
2022-12-31T12:28:11.171Z,0.3612040133779264
2022-12-31T12:34:34.321Z,0.6153846153846154
2022-12-31T12:40:56.042Z,0.5217391304347826
2022-12-31T12:47:18.350Z,0.43478260869565216
2022-12-31T12:53:41.121Z,0.27424749163879597
2022-12-31T13:00:25.747Z,0.5886287625418061
2022-12-31T13:13:23.224Z,0.2809364548494983
2022-12-31T13:20:49.862Z,0.25418060200668896
2022-12-31T13:27:12.518Z,0.7725752508361204
2022-12-31T13:33:35.667Z,0.882943143812709
2022-12-31T13:39:57.144Z,1.5719063545150502
2022-12-31T13:46:17.517Z,0.5551839464882943
2022-12-31T13:52:39.214Z,0.7023411371237458
2022-12-31T13:59:00.536Z,0.7090301003344481
2022-12-31T14:15:20.485Z,0.7090301003344481
2022-12-31T14:21:41.633Z,0.22073578595317725
2022-12-31T14:28:06.028Z,0.9096989966555183
2022-12-31T14:37:11.801Z,0.4080267558528428
2022-12-31T14:43:32.120Z,0.8762541806020067
2022-12-31T14:49:50.681Z,0.782608695652174
2022-12-31T14:56:10.897Z,0.7157190635451505
2022-12-31T15:02:30.754Z,2.0033444816053514
2022-12-31T15:08:50.215Z,1.6789297658862876
2022-12-31T15:15:10.015Z,0.8762541806020067
2022-12-31T15:22:47.698Z,1.5451505016722409
2022-12-31T15:29:07.492Z,1.5117056856187292
2022-12-31T15:35:26.725Z,1.1638795986622072
2022-12-31T15:42:18.624Z,1.0702341137123745
2022-12-31T15:49:00.467Z,0.7157190635451505
2022-12-31T15:55:23.389Z,0.903010033444816
2022-12-31T16:01:43.628Z,1.2775919732441472
2022-12-31T16:08:03.543Z,1.234113712374582
2022-12-31T16:17:15.166Z,0.9966555183946488
2022-12-31T16:23:40.498Z,1.274247491638796
2022-12-31T16:30:01.869Z,1.6555183946488294
2022-12-31T16:36:22.129Z,1.1839464882943145
2022-12-31T16:42:44.518Z,1.3411371237458194
2022-12-31T16:50:07.253Z,1.4581939799331103
2022-12-31T16:56:50.914Z,1.2909698996655519
2022-12-31T17:05:59.509Z,0.9966555183946488
2022-12-31T17:17:41.274Z,0.6321070234113713
2022-12-31T17:24:11.642Z,0.8762541806020067
2022-12-31T17:38:30.520Z,1.5217391304347827
2022-12-31T17:44:50.876Z,1.4849498327759196
2022-12-31T17:51:10.122Z,1.7525083612040133
2022-12-31T17:57:30.140Z,1.7424749163879598
2022-12-31T18:03:49.548Z,1.3812709030100334
2022-12-31T18:10:10.255Z,2.2876254180602005
2022-12-31T18:16:29.703Z,2.3779264214046822
2022-12-31T18:22:49.488Z,2.588628762541806
2022-12-31T18:40:41.397Z,2.3043478260869565
2022-12-31T18:52:15.400Z,2.2876254180602005
2022-12-31T18:59:17.668Z,1.7190635451505016
2022-12-31T19:05:36.986Z,2.020066889632107
2022-12-31T19:11:56.603Z,2.2876254180602005
2022-12-31T19:18:16.625Z,1.2675585284280937
2022-12-31T19:24:36.320Z,1.234113712374582
2022-12-31T19:36:38.651Z,2.94314381270903
2022-12-31T19:45:06.053Z,2.3645484949832776
2022-12-31T19:51:25.904Z,2.8327759197324416
2022-12-31T19:57:45.043Z,3.3411371237458196
2022-12-31T20:04:04.371Z,1.7424749163879598
2022-12-31T20:14:10.095Z,1.7625418060200668
2022-12-31T20:20:29.915Z,1.6588628762541806
2022-12-31T20:26:49.006Z,2.3411371237458196
2022-12-31T20:36:07.631Z,1.8528428093645486
2022-12-31T20:42:27.346Z,1.6321070234113713
2022-12-31T20:49:31.358Z,1.979933110367893
2022-12-31T20:56:12.271Z,3.4548494983277593
2022-12-31T21:04:41.207Z,1.1505016722408026
2022-12-31T21:12:35.845Z,2.25752508361204
2022-12-31T21:18:54.666Z,2.180602006688963
2022-12-31T21:25:14.260Z,3.57190635451505
2022-12-31T21:37:58.880Z,2.1672240802675584
2022-12-31T21:50:21.949Z,2.9866220735785953
2022-12-31T21:56:40.927Z,2.4816053511705687
2022-12-31T22:07:52.507Z,3.301003344481605
2022-12-31T22:14:11.227Z,1.5919732441471572
2022-12-31T22:20:30.554Z,1.625418060200669
2022-12-31T22:30:11.576Z,2.682274247491639
2022-12-31T22:36:30.221Z,2.4013377926421406
2022-12-31T22:42:49.248Z,3.036789297658863
2022-12-31T22:49:07.945Z,2.4782608695652173
2022-12-31T22:55:27.084Z,5.361204013377926
2022-12-31T23:01:47.582Z,7.464882943143813
2022-12-31T23:14:54.103Z,15.608695652173912
2022-12-31T23:28:44.438Z,12.364548494983278
2022-12-31T23:35:09.573Z,6.434782608695652
2022-12-31T23:42:52.920Z,4.842809364548495
2022-12-31T23:53:31.997Z,4.6120401337792645
2022-12-31T23:59:51.373Z,4.046822742474917
